createdAt,value
2019-04-10T00:00:39.170Z,99.90
2019-04-10T00:03:08.267Z,99.90
2019-04-10T00:05:37.967Z,99.90
2019-04-10T00:08:08.126Z,99.90
2019-04-10T00:10:38.224Z,99.90
2019-04-10T00:13:07.126Z,99.90
2019-04-10T00:15:35.934Z,99.90
2019-04-10T00:18:05.322Z,99.90
2019-04-10T00:20:35.062Z,99.90
2019-04-10T00:23:03.841Z,99.90
2019-04-10T00:25:32.900Z,99.90
2019-04-10T00:28:01.670Z,99.90
2019-04-10T00:30:31.259Z,99.90
2019-04-10T00:33:00.546Z,99.90
2019-04-10T00:35:29.757Z,99.90
2019-04-10T00:37:59.543Z,99.90
2019-04-10T00:40:28.368Z,99.90
2019-04-10T00:42:58.594Z,99.90
2019-04-10T00:45:27.451Z,99.90
2019-04-10T00:47:56.366Z,99.90
2019-04-10T00:50:25.082Z,99.90
2019-04-10T00:52:54.693Z,99.90
2019-04-10T00:55:23.767Z,99.90
2019-04-10T00:57:52.650Z,99.90
2019-04-10T01:00:22.011Z,99.90
2019-04-10T01:02:51.395Z,99.90
2019-04-10T01:05:20.274Z,99.90
2019-04-10T01:07:48.979Z,99.90
2019-04-10T01:10:17.898Z,99.90
2019-04-10T01:12:46.781Z,99.90
2019-04-10T01:15:15.457Z,99.90
2019-04-10T01:17:44.140Z,99.90
2019-04-10T01:20:13.330Z,99.90
2019-04-10T01:22:42.173Z,99.90
2019-04-10T01:25:11.113Z,99.90
2019-04-10T01:27:41.040Z,99.90
2019-04-10T01:30:10.488Z,99.90
2019-04-10T01:32:39.788Z,99.90
2019-04-10T01:35:09.812Z,99.90
2019-04-10T01:37:48.882Z,99.90
2019-04-10T01:40:09.091Z,99.90
2019-04-10T01:42:38.640Z,99.90
2019-04-10T01:45:07.899Z,99.90
2019-04-10T01:47:37.285Z,99.90
2019-04-10T01:50:06.395Z,99.90
2019-04-10T01:52:35.447Z,99.90
2019-04-10T01:55:18.120Z,99.90
2019-04-10T01:57:34.811Z,99.90
2019-04-10T02:00:04.655Z,99.90
2019-04-10T02:02:41.173Z,99.90
2019-04-10T02:05:09.877Z,99.90
2019-04-10T02:07:38.562Z,99.90
2019-04-10T02:10:07.931Z,99.90
2019-04-10T02:12:36.851Z,99.90
2019-04-10T02:15:07.082Z,99.90
2019-04-10T02:17:36.862Z,99.90
2019-04-10T02:20:07.021Z,99.90
2019-04-10T02:22:36.317Z,99.90
2019-04-10T02:25:05.290Z,99.90
2019-04-10T02:27:34.314Z,99.90
2019-04-10T02:30:04.888Z,99.90
2019-04-10T02:32:34.515Z,99.90
2019-04-10T02:35:03.866Z,99.90
2019-04-10T02:37:33.365Z,99.90
2019-04-10T02:40:04.547Z,99.90
2019-04-10T02:42:32.557Z,99.90
2019-04-10T02:45:02.252Z,99.90
2019-04-10T02:47:31.476Z,99.90
2019-04-10T02:50:00.739Z,99.90
2019-04-10T02:52:30.853Z,99.90
2019-04-10T02:54:59.709Z,99.90
2019-04-10T02:57:29.443Z,99.90
2019-04-10T03:00:00.839Z,99.90
2019-04-10T03:02:29.409Z,99.90
2019-04-10T03:04:59.419Z,99.90
2019-04-10T03:07:28.407Z,99.90
2019-04-10T03:10:12.014Z,99.90
2019-04-10T03:12:28.434Z,99.90
2019-04-10T03:14:59.149Z,99.90
2019-04-10T03:17:28.195Z,99.90
2019-04-10T03:19:58.063Z,99.90
2019-04-10T03:22:27.700Z,99.90
2019-04-10T03:24:56.822Z,99.90
2019-04-10T03:27:26.061Z,99.90
2019-04-10T03:29:55.986Z,99.90
2019-04-10T03:32:47.628Z,99.90
2019-04-10T03:35:18.737Z,99.90
2019-04-10T03:37:48.639Z,99.90
2019-04-10T03:40:17.476Z,99.90
2019-04-10T03:42:47.269Z,99.90
2019-04-10T03:45:16.330Z,99.90
2019-04-10T03:47:45.207Z,99.90
2019-04-10T03:50:14.259Z,99.90
2019-04-10T03:52:43.311Z,99.90
2019-04-10T03:55:12.578Z,99.90
2019-04-10T03:57:41.425Z,99.90
2019-04-10T04:00:10.195Z,99.90
2019-04-10T04:02:39.974Z,99.90
2019-04-10T04:05:08.863Z,99.90
2019-04-10T04:07:38.779Z,99.90
2019-04-10T04:10:09.334Z,99.90
2019-04-10T04:12:39.150Z,99.90
2019-04-10T04:15:07.903Z,99.90
2019-04-10T04:17:36.671Z,99.90
2019-04-10T04:20:06.415Z,99.90
2019-04-10T04:22:35.317Z,99.90
2019-04-10T04:25:04.578Z,99.90
2019-04-10T04:27:33.623Z,99.90
2019-04-10T04:30:02.302Z,99.90
2019-04-10T04:32:31.524Z,99.90
2019-04-10T04:35:00.271Z,99.90
2019-04-10T04:37:30.085Z,99.90
2019-04-10T04:39:59.069Z,99.90
2019-04-10T04:42:28.702Z,99.90
2019-04-10T04:44:58.301Z,99.90
2019-04-10T04:47:27.115Z,99.90
2019-04-10T04:49:55.845Z,99.90
2019-04-10T04:52:24.537Z,99.90
2019-04-10T04:54:53.361Z,99.90
2019-04-10T04:57:22.665Z,99.90
2019-04-10T04:59:51.373Z,99.90
2019-04-10T05:02:20.241Z,99.90
2019-04-10T05:04:49.367Z,99.90
2019-04-10T05:07:18.142Z,99.90
2019-04-10T05:09:46.895Z,99.90
2019-04-10T05:12:16.544Z,99.90
2019-04-10T05:14:46.158Z,99.90
2019-04-10T05:17:16.668Z,99.90
2019-04-10T05:19:45.485Z,99.90
2019-04-10T05:22:14.409Z,99.90
2019-04-10T05:24:43.284Z,99.90
2019-04-10T05:27:12.075Z,99.90
2019-04-10T05:29:40.949Z,99.90
2019-04-10T05:32:09.859Z,99.90
2019-04-10T05:34:38.578Z,99.90
2019-04-10T05:37:07.403Z,99.90
2019-04-10T05:39:43.180Z,99.90
2019-04-10T05:42:06.781Z,99.90
2019-04-10T05:44:36.057Z,99.90
2019-04-10T05:47:05.380Z,99.90
2019-04-10T05:49:35.102Z,99.90
2019-04-10T05:52:04.238Z,99.90
2019-04-10T05:54:33.367Z,99.90
2019-04-10T05:57:02.170Z,99.90
2019-04-10T05:59:30.899Z,99.90
2019-04-10T06:02:01.010Z,99.90
2019-04-10T06:04:29.828Z,99.90
2019-04-10T06:06:58.899Z,99.90
2019-04-10T06:09:27.676Z,99.90
2019-04-10T06:11:57.309Z,99.90
2019-04-10T06:14:26.238Z,99.90
2019-04-10T06:16:58.097Z,99.90
2019-04-10T06:19:27.008Z,99.90
2019-04-10T06:21:56.576Z,99.90
2019-04-10T06:24:25.366Z,99.90
2019-04-10T06:26:54.153Z,99.90
2019-04-10T06:29:23.259Z,99.90
2019-04-10T06:31:52.781Z,99.90
2019-04-10T06:34:22.587Z,99.90
2019-04-10T06:36:51.545Z,99.90
2019-04-10T06:39:20.596Z,99.90
2019-04-10T06:41:50.843Z,99.90
2019-04-10T06:44:19.698Z,99.90
2019-04-10T06:46:48.674Z,99.90
2019-04-10T06:49:17.509Z,99.90
2019-04-10T06:51:46.194Z,99.90
2019-04-10T06:54:14.945Z,99.90
2019-04-10T06:56:43.658Z,99.90
2019-04-10T06:59:12.386Z,99.90
2019-04-10T07:01:48.772Z,99.90
2019-04-10T07:04:11.671Z,99.90
2019-04-10T07:06:53.996Z,99.90
2019-04-10T07:09:15.721Z,99.90
2019-04-10T07:11:44.980Z,99.90
2019-04-10T07:14:14.408Z,99.90
2019-04-10T07:16:44.257Z,99.90
2019-04-10T07:19:13.250Z,99.90
2019-04-10T07:21:42.738Z,99.90
2019-04-10T07:24:14.682Z,99.90
2019-04-10T07:26:44.887Z,99.90
2019-04-10T07:29:16.377Z,99.90
2019-04-10T07:31:42.932Z,99.90
2019-04-10T07:34:11.584Z,99.90
2019-04-10T07:36:42.502Z,99.90
2019-04-10T07:39:10.961Z,99.90
2019-04-10T07:41:39.766Z,99.90
2019-04-10T07:44:08.550Z,99.90
2019-04-10T07:46:38.149Z,99.90
2019-04-10T07:49:07.075Z,99.90
2019-04-10T07:51:36.691Z,99.90
2019-04-10T07:54:06.141Z,99.90
2019-04-10T07:56:35.389Z,99.90
2019-04-10T07:59:04.655Z,99.90
2019-04-10T08:01:33.463Z,99.90
2019-04-10T08:04:02.298Z,99.90
2019-04-10T08:06:31.005Z,99.90
2019-04-10T08:08:59.681Z,99.90
2019-04-10T08:11:29.526Z,99.90
2019-04-10T08:13:58.393Z,99.90
2019-04-10T08:16:27.352Z,99.90
2019-04-10T08:18:56.340Z,99.90
2019-04-10T08:21:25.064Z,99.90
2019-04-10T08:23:54.804Z,99.90
2019-04-10T08:26:24.678Z,99.90
2019-04-10T08:28:53.773Z,99.90
2019-04-10T08:31:23.767Z,99.90
2019-04-10T08:33:52.724Z,99.90
2019-04-10T08:36:21.590Z,99.90
2019-04-10T08:38:50.867Z,99.90
2019-04-10T08:41:19.685Z,99.90
2019-04-10T08:43:48.486Z,99.90
2019-04-10T08:46:17.696Z,99.90
2019-04-10T08:48:47.560Z,99.90
2019-04-10T08:51:17.047Z,99.90
2019-04-10T08:53:46.707Z,99.90
2019-04-10T08:56:16.247Z,99.90
2019-04-10T08:58:45.337Z,99.90
2019-04-10T09:01:14.326Z,99.90
2019-04-10T09:04:23.813Z,99.90
2019-04-10T09:06:52.845Z,99.90
2019-04-10T09:09:21.630Z,99.90
2019-04-10T09:11:51.376Z,99.90
2019-04-10T09:14:21.132Z,99.90
2019-04-10T09:16:51.000Z,99.90
2019-04-10T09:19:20.456Z,99.90
2019-04-10T09:21:49.899Z,99.90
2019-04-10T09:24:19.533Z,99.90
2019-04-10T09:26:48.694Z,99.90
2019-04-10T09:29:18.186Z,99.90
2019-04-10T09:31:48.113Z,99.90
2019-04-10T09:34:17.920Z,99.90
2019-04-10T09:36:46.697Z,99.90
2019-04-10T09:39:15.633Z,99.90
2019-04-10T09:41:44.493Z,99.90
2019-04-10T09:44:14.353Z,99.90
2019-04-10T09:46:43.163Z,99.90
2019-04-10T09:49:12.377Z,99.90
2019-04-10T09:51:42.394Z,99.90
2019-04-10T09:54:11.404Z,99.90
2019-04-10T09:56:40.175Z,99.90
2019-04-10T09:59:09.667Z,99.90
2019-04-10T10:01:38.496Z,99.90
2019-04-10T10:04:07.179Z,99.90
2019-04-10T10:06:36.994Z,99.90
2019-04-10T10:09:08.265Z,99.90
2019-04-10T10:11:38.473Z,99.90
2019-04-10T10:14:07.317Z,99.90
2019-04-10T10:16:36.030Z,99.90
2019-04-10T10:19:05.760Z,99.90
2019-04-10T10:21:34.647Z,99.90
2019-04-10T10:24:04.441Z,99.90
2019-04-10T10:26:34.305Z,99.90
2019-04-10T10:29:03.470Z,99.90
2019-04-10T10:31:32.501Z,99.90
2019-04-10T10:34:01.912Z,99.90
2019-04-10T10:36:40.744Z,99.90
2019-04-10T10:39:07.070Z,99.90
2019-04-10T10:41:31.937Z,99.90
2019-04-10T10:44:00.680Z,99.90
2019-04-10T10:46:29.978Z,99.90
2019-04-10T10:48:58.721Z,99.90
2019-04-10T10:51:27.456Z,99.90
2019-04-10T10:53:56.664Z,99.90
2019-04-10T10:56:26.773Z,99.90
2019-04-10T10:58:57.789Z,99.90
2019-04-10T11:01:26.189Z,99.90
2019-04-10T11:03:55.026Z,99.90
2019-04-10T11:06:24.923Z,99.90
2019-04-10T11:08:53.830Z,99.90
2019-04-10T11:11:22.824Z,99.90
2019-04-10T11:13:51.737Z,99.90
2019-04-10T11:16:20.673Z,99.90
2019-04-10T11:18:50.811Z,99.90
2019-04-10T11:21:20.701Z,99.90
2019-04-10T11:23:49.583Z,99.90
2019-04-10T11:28:49.973Z,99.90
2019-04-10T11:31:23.636Z,99.90
2019-04-10T11:33:55.633Z,99.90
2019-04-10T11:36:23.519Z,99.90
2019-04-10T11:38:55.359Z,99.90
2019-04-10T11:41:23.454Z,99.90
2019-04-10T11:43:55.839Z,99.90
2019-04-10T11:46:25.312Z,99.90
2019-04-10T11:48:55.353Z,99.90
2019-04-10T11:51:29.802Z,99.90
2019-04-10T11:53:56.958Z,99.90
2019-04-10T11:56:26.819Z,99.90
2019-04-10T11:58:56.935Z,99.90
2019-04-10T12:01:27.912Z,99.90
2019-04-10T12:03:58.040Z,99.90
2019-04-10T12:06:29.729Z,99.90
2019-04-10T12:09:26.123Z,99.90
2019-04-10T12:11:27.543Z,99.90
2019-04-10T12:13:56.737Z,99.90
2019-04-10T12:16:25.544Z,99.90
2019-04-10T12:18:55.039Z,99.90
2019-04-10T12:21:24.832Z,99.90
2019-04-10T12:23:53.635Z,99.90
2019-04-10T12:26:23.302Z,99.90
2019-04-10T12:28:52.282Z,99.90
2019-04-10T12:31:21.045Z,99.90
2019-04-10T12:33:50.722Z,99.90
2019-04-10T12:36:20.449Z,99.90
2019-04-10T12:38:49.839Z,99.90
2019-04-10T12:41:19.293Z,99.90
2019-04-10T12:43:49.269Z,99.90
2019-04-10T12:46:19.079Z,99.90
2019-04-10T12:48:47.929Z,99.90
2019-04-10T12:51:17.418Z,99.90
2019-04-10T12:53:46.235Z,99.90
2019-04-10T12:56:15.742Z,99.90
2019-04-10T13:01:12.111Z,99.90
2019-04-10T13:03:41.148Z,99.90
2019-04-10T13:06:13.663Z,99.90
2019-04-10T13:08:57.041Z,99.90
2019-04-10T13:11:13.073Z,99.90
2019-04-10T13:13:42.187Z,99.90
2019-04-10T13:16:11.990Z,99.90
2019-04-10T13:18:40.781Z,99.90
2019-04-10T13:21:10.395Z,99.90
2019-04-10T13:23:39.677Z,99.90
2019-04-10T13:26:10.415Z,99.90
2019-04-10T13:28:39.373Z,99.90
2019-04-10T13:31:08.887Z,99.90
2019-04-10T13:33:38.571Z,99.90
2019-04-10T13:36:07.509Z,99.90
2019-04-10T13:38:36.935Z,99.90
2019-04-10T13:41:06.779Z,99.90
2019-04-10T13:43:36.017Z,99.90
2019-04-10T13:46:04.878Z,99.90
2019-04-10T13:48:33.684Z,99.90
2019-04-10T13:51:03.403Z,99.90
2019-04-10T13:53:32.260Z,99.90
2019-04-10T13:56:01.153Z,99.90
2019-04-10T13:58:30.969Z,99.90
2019-04-10T14:01:00.965Z,99.90
2019-04-10T14:03:30.157Z,99.90
2019-04-10T14:05:59.102Z,99.90
2019-04-10T14:08:48.309Z,99.90
2019-04-10T14:10:58.657Z,99.90
2019-04-10T14:13:27.581Z,99.90
2019-04-10T14:15:56.446Z,99.90
2019-04-10T14:18:26.181Z,99.90
2019-04-10T14:20:55.485Z,99.90
2019-04-10T14:23:28.761Z,99.90
2019-04-10T14:26:06.546Z,99.90
2019-04-10T14:28:35.531Z,99.90
2019-04-10T14:31:09.658Z,99.90
2019-04-10T14:33:38.404Z,99.90
2019-04-10T14:36:07.574Z,99.90
2019-04-10T14:38:36.407Z,99.90
2019-04-10T14:41:05.327Z,99.90
2019-04-10T14:43:34.151Z,99.90
2019-04-10T14:46:02.957Z,99.90
2019-04-10T14:48:33.085Z,99.90
2019-04-10T14:51:01.937Z,99.90
2019-04-10T14:53:31.160Z,99.90
2019-04-10T14:55:59.999Z,99.90
2019-04-10T14:58:30.833Z,99.90
2019-04-10T15:00:59.841Z,99.50
2019-04-10T15:03:28.667Z,98.90
2019-04-10T15:05:59.819Z,98.80
2019-04-10T15:08:28.118Z,98.90
2019-04-10T15:10:56.945Z,98.90
2019-04-10T15:13:25.859Z,99.30
2019-04-10T15:15:54.845Z,98.70
2019-04-10T15:18:23.691Z,98.90
2019-04-10T15:20:52.476Z,98.30
2019-04-10T15:23:21.199Z,98.00
2019-04-10T15:25:49.887Z,98.20
2019-04-10T15:28:18.592Z,98.50
2019-04-10T15:30:47.566Z,98.50
2019-04-10T15:33:16.407Z,98.60
2019-04-10T15:35:45.105Z,98.40
2019-04-10T15:38:14.080Z,97.60
2019-04-10T15:40:42.777Z,97.20
2019-04-10T15:43:12.624Z,96.40
2019-04-10T15:45:41.695Z,96.60
2019-04-10T15:48:10.506Z,96.40
2019-04-10T15:50:39.567Z,95.80
2019-04-10T15:53:09.646Z,95.80
2019-04-10T15:55:38.545Z,95.70
2019-04-10T15:58:08.645Z,96.00
2019-04-10T16:00:37.589Z,95.80
2019-04-10T16:03:06.289Z,95.00
2019-04-10T16:05:35.153Z,95.50
2019-04-10T16:08:03.933Z,94.90
2019-04-10T16:11:01.525Z,94.90
2019-04-10T16:13:35.265Z,94.80
2019-04-10T16:16:19.127Z,94.10
2019-04-10T16:18:48.974Z,94.10
2019-04-10T16:21:18.304Z,94.60
2019-04-10T16:23:56.260Z,94.30
2019-04-10T16:26:25.268Z,93.90
2019-04-10T16:28:54.005Z,93.60
2019-04-10T16:31:23.517Z,94.00
2019-04-10T16:33:52.526Z,94.10
2019-04-10T16:36:21.401Z,93.50
2019-04-10T16:38:51.130Z,93.30
2019-04-10T16:41:20.102Z,93.70
2019-04-10T16:43:48.834Z,93.00
2019-04-10T16:46:17.625Z,93.20
2019-04-10T16:48:46.362Z,92.70
2019-04-10T16:51:17.060Z,93.20
2019-04-10T16:53:45.567Z,93.10
2019-04-10T16:56:14.283Z,93.30
2019-04-10T16:58:43.073Z,92.60
2019-04-10T17:01:12.593Z,92.60
2019-04-10T17:03:42.107Z,91.80
2019-04-10T17:06:10.942Z,91.40
2019-04-10T17:08:40.688Z,91.30
2019-04-10T17:11:10.202Z,91.40
2019-04-10T17:13:38.919Z,91.30
2019-04-10T17:16:07.693Z,91.20
2019-04-10T17:18:36.397Z,91.00
2019-04-10T17:21:05.186Z,90.80
2019-04-10T17:23:34.435Z,90.80
2019-04-10T17:26:03.625Z,91.00
2019-04-10T17:28:32.648Z,91.40
2019-04-10T17:31:02.317Z,91.50
2019-04-10T17:33:32.260Z,91.50
2019-04-10T17:36:05.555Z,91.80
2019-04-10T17:38:34.960Z,93.80
2019-04-10T17:41:04.483Z,94.80
2019-04-10T17:43:34.946Z,96.20
2019-04-10T17:46:03.901Z,97.20
2019-04-10T17:48:34.620Z,97.40
2019-04-10T17:51:03.716Z,97.70
2019-04-10T17:53:33.580Z,98.20
2019-04-10T17:56:02.468Z,98.50
2019-04-10T17:58:33.830Z,99.40
2019-04-10T18:01:04.707Z,99.60
2019-04-10T18:03:42.839Z,99.90
2019-04-10T18:06:04.026Z,99.90
2019-04-10T18:08:32.780Z,99.90
2019-04-10T18:11:01.650Z,99.90
2019-04-10T18:13:30.841Z,99.90
2019-04-10T18:16:00.122Z,99.90
2019-04-10T18:18:32.027Z,99.90
2019-04-10T18:21:00.770Z,99.90
2019-04-10T18:23:29.562Z,99.90
2019-04-10T18:25:58.415Z,99.90
2019-04-10T18:28:28.494Z,99.90
2019-04-10T18:30:58.591Z,99.90
2019-04-10T18:33:27.324Z,99.90
2019-04-10T18:35:55.997Z,99.90
2019-04-10T18:38:25.718Z,99.90
2019-04-10T18:41:00.835Z,99.90
2019-04-10T18:43:25.960Z,99.90
2019-04-10T18:46:06.130Z,99.90
2019-04-10T18:48:26.784Z,99.90
2019-04-10T18:50:55.784Z,99.90
2019-04-10T18:53:24.818Z,99.90
2019-04-10T18:55:56.683Z,99.90
2019-04-10T18:58:28.347Z,99.90
2019-04-10T19:01:16.062Z,99.90
2019-04-10T19:03:59.686Z,99.90
2019-04-10T19:06:29.903Z,99.90
2019-04-10T19:09:07.773Z,99.90
2019-04-10T19:11:33.564Z,99.90
2019-04-10T19:13:59.693Z,99.90
2019-04-10T19:16:29.733Z,99.90
2019-04-10T19:18:59.749Z,99.90
2019-04-10T19:21:29.350Z,99.90
2019-04-10T19:23:58.450Z,99.90
2019-04-10T19:26:27.466Z,99.90
2019-04-10T19:28:57.133Z,99.90
2019-04-10T19:31:26.345Z,99.90
2019-04-10T19:33:55.124Z,99.90
2019-04-10T19:36:23.908Z,99.90
2019-04-10T19:38:53.726Z,99.90
2019-04-10T19:41:30.778Z,99.90
2019-04-10T19:43:54.697Z,99.90
2019-04-10T19:46:23.920Z,99.90
2019-04-10T19:48:53.566Z,99.90
2019-04-10T19:51:22.495Z,99.90
2019-04-10T19:53:51.455Z,99.90
2019-04-10T19:56:20.359Z,99.90
2019-04-10T19:58:50.215Z,99.90
2019-04-10T20:01:19.254Z,99.90
2019-04-10T20:03:48.197Z,99.90
2019-04-10T20:06:18.262Z,99.90
2019-04-10T20:08:48.080Z,99.90
2019-04-10T20:11:17.015Z,99.90
2019-04-10T20:13:47.033Z,99.90
2019-04-10T20:16:16.273Z,99.90
2019-04-10T20:18:46.111Z,99.90
2019-04-10T20:21:15.524Z,99.90
2019-04-10T20:23:44.474Z,99.90
2019-04-10T20:26:14.767Z,99.90
2019-04-10T20:29:02.955Z,99.90
2019-04-10T20:31:34.371Z,99.90
2019-04-10T20:34:03.833Z,99.90
2019-04-10T20:36:33.240Z,99.90
2019-04-10T20:39:06.175Z,99.90
2019-04-10T20:41:47.572Z,99.90
2019-04-10T20:44:07.250Z,99.90
2019-04-10T20:46:36.604Z,99.90
2019-04-10T20:49:08.017Z,99.90
2019-04-10T20:51:36.230Z,99.90
2019-04-10T20:54:05.100Z,99.90
2019-04-10T20:56:34.765Z,99.90
2019-04-10T20:59:03.724Z,99.90
2019-04-10T21:01:33.048Z,99.90
2019-04-10T21:04:03.046Z,99.90
2019-04-10T21:06:31.965Z,99.90
2019-04-10T21:09:01.278Z,99.90
2019-04-10T21:11:30.272Z,99.90
2019-04-10T21:14:00.110Z,99.90
2019-04-10T21:16:28.864Z,99.90
2019-04-10T21:18:57.690Z,99.90
2019-04-10T21:21:26.457Z,99.90
2019-04-10T21:23:56.403Z,99.90
2019-04-10T21:26:25.303Z,99.90
2019-04-10T21:28:54.110Z,99.90
2019-04-10T21:31:36.332Z,99.90
2019-04-10T21:34:33.234Z,99.90
2019-04-10T21:37:02.081Z,99.90
2019-04-10T21:39:31.759Z,99.90
2019-04-10T21:42:11.980Z,99.90
2019-04-10T21:44:31.095Z,99.90
2019-04-10T21:46:59.866Z,99.90
2019-04-10T21:49:28.689Z,99.90
2019-04-10T21:51:57.896Z,99.90
2019-04-10T21:54:27.001Z,99.90
2019-04-10T21:56:55.973Z,99.90
2019-04-10T21:59:24.867Z,99.90
2019-04-10T22:01:54.713Z,99.90
2019-04-10T22:04:25.115Z,99.90
2019-04-10T22:07:11.910Z,99.90
2019-04-10T22:12:42.162Z,99.90
2019-04-10T22:18:17.070Z,99.90
2019-04-10T22:20:58.637Z,99.90
2019-04-10T22:23:40.547Z,99.90
2019-04-10T22:26:22.068Z,99.90
2019-04-10T22:29:03.612Z,99.90
2019-04-10T22:34:42.071Z,99.90
2019-04-10T22:37:31.907Z,99.90
2019-04-10T22:40:21.466Z,99.90
2019-04-10T22:42:51.746Z,99.90
2019-04-10T22:45:40.177Z,99.90
2019-04-10T22:48:08.922Z,99.90
2019-04-10T22:50:57.025Z,99.90
2019-04-10T22:53:39.547Z,99.90
2019-04-10T22:56:20.974Z,99.90
2019-04-10T22:59:01.941Z,99.90
2019-04-10T23:01:43.341Z,99.90
2019-04-10T23:04:12.313Z,99.90
2019-04-10T23:07:00.371Z,99.90
2019-04-10T23:09:29.113Z,99.90
2019-04-10T23:12:18.224Z,99.90
2019-04-10T23:15:07.116Z,99.90
2019-04-10T23:17:55.318Z,99.90
2019-04-10T23:20:43.860Z,99.90
2019-04-10T23:23:33.500Z,99.90
2019-04-10T23:26:22.747Z,99.90
2019-04-10T23:28:51.999Z,99.90
2019-04-10T23:31:39.967Z,99.90
2019-04-10T23:34:28.499Z,99.90
2019-04-10T23:37:18.417Z,99.90
2019-04-10T23:40:08.385Z,99.90
2019-04-10T23:43:08.010Z,99.90
2019-04-10T23:45:48.713Z,99.90
2019-04-10T23:48:37.146Z,99.90
2019-04-10T23:51:25.280Z,99.90
2019-04-10T23:54:05.792Z,99.90
2019-04-10T23:56:35.660Z,99.90
